createdAt,value
2017-07-19T00:02:04.781Z,74.53
2017-07-19T00:04:37.062Z,74.34
2017-07-19T00:07:09.410Z,74.23
2017-07-19T00:09:41.645Z,74.51
2017-07-19T00:12:14.015Z,74.10
2017-07-19T00:14:46.607Z,74.42
2017-07-19T00:17:18.722Z,74.37
2017-07-19T00:19:50.934Z,74.40
2017-07-19T00:22:23.241Z,74.11
2017-07-19T00:24:55.553Z,74.49
2017-07-19T00:27:27.978Z,74.55
2017-07-19T00:30:00.397Z,74.56
2017-07-19T00:32:32.868Z,75.01
2017-07-19T00:35:05.249Z,75.16
2017-07-19T00:37:37.686Z,75.28
2017-07-19T00:40:10.133Z,75.23
2017-07-19T00:42:42.619Z,75.21
2017-07-19T00:45:14.896Z,75.22
2017-07-19T00:47:47.333Z,75.43
2017-07-19T00:50:19.719Z,75.57
2017-07-19T00:52:52.497Z,75.85
2017-07-19T00:55:24.682Z,76.01
2017-07-19T00:57:57.006Z,76.07
2017-07-19T01:00:29.273Z,76.32
2017-07-19T01:03:01.530Z,76.57
2017-07-19T01:05:33.821Z,76.72
2017-07-19T01:08:06.153Z,76.74
2017-07-19T01:10:38.558Z,77.17
2017-07-19T01:13:11.076Z,77.05
2017-07-19T01:15:43.406Z,77.21
2017-07-19T01:18:15.782Z,77.22
2017-07-19T01:20:48.073Z,77.43
2017-07-19T01:23:20.506Z,77.93
2017-07-19T01:25:52.857Z,78.04
2017-07-19T01:28:25.178Z,78.06
2017-07-19T01:30:57.530Z,78.31
2017-07-19T01:33:29.938Z,78.55
2017-07-19T01:36:02.292Z,78.58
2017-07-19T01:38:34.626Z,78.60
2017-07-19T01:41:06.945Z,78.72
2017-07-19T01:43:39.294Z,78.81
2017-07-19T01:46:11.569Z,78.86
2017-07-19T01:48:44.025Z,79.27
2017-07-19T01:51:16.208Z,79.27
2017-07-19T01:53:48.603Z,79.47
2017-07-19T01:56:20.934Z,79.53
2017-07-19T01:58:53.289Z,79.51
2017-07-19T02:01:25.591Z,79.74
2017-07-19T02:03:57.981Z,79.62
2017-07-19T02:06:30.217Z,80.00
2017-07-19T02:09:02.577Z,80.16
2017-07-19T02:11:34.661Z,80.45
2017-07-19T02:14:07.065Z,80.71
2017-07-19T02:16:39.392Z,80.78
2017-07-19T02:19:11.679Z,80.72
2017-07-19T02:21:44.010Z,80.98
2017-07-19T02:24:16.484Z,81.06
2017-07-19T02:26:48.918Z,81.48
2017-07-19T02:29:21.119Z,81.29
2017-07-19T02:31:53.338Z,81.08
2017-07-19T02:34:25.760Z,81.43
2017-07-19T02:36:57.964Z,81.57
2017-07-19T02:39:30.213Z,81.75
2017-07-19T02:42:02.516Z,81.61
2017-07-19T02:44:34.966Z,81.56
2017-07-19T02:47:07.217Z,81.67
2017-07-19T02:49:39.727Z,81.85
2017-07-19T02:52:11.989Z,81.95
2017-07-19T02:54:44.429Z,82.23
2017-07-19T02:57:16.613Z,82.36
2017-07-19T02:59:48.930Z,82.62
2017-07-19T03:02:21.619Z,82.50
2017-07-19T03:04:54.102Z,82.81
2017-07-19T03:07:26.361Z,82.84
2017-07-19T03:09:59.120Z,82.61
2017-07-19T03:12:31.254Z,82.76
2017-07-19T03:15:03.689Z,82.67
2017-07-19T03:17:35.928Z,82.77
2017-07-19T03:20:08.369Z,82.96
2017-07-19T03:22:47.974Z,82.96
2017-07-19T03:25:20.341Z,83.25
2017-07-19T03:27:52.708Z,83.48
2017-07-19T03:30:25.142Z,83.68
2017-07-19T03:32:57.490Z,83.79
2017-07-19T03:35:29.888Z,84.06
2017-07-19T03:38:02.162Z,83.85
2017-07-19T03:40:34.651Z,83.86
2017-07-19T03:43:06.569Z,83.70
2017-07-19T03:45:38.957Z,83.86
2017-07-19T03:48:11.498Z,83.96
2017-07-19T03:50:43.870Z,84.20
2017-07-19T03:53:16.185Z,84.28
2017-07-19T03:55:48.441Z,84.29
2017-07-19T03:58:20.687Z,84.11
2017-07-19T04:00:53.009Z,84.17
2017-07-19T04:03:25.269Z,84.24
2017-07-19T04:05:57.546Z,84.14
2017-07-19T04:08:29.840Z,83.94
2017-07-19T04:11:02.158Z,83.70
2017-07-19T04:13:34.514Z,83.46
2017-07-19T04:16:07.017Z,83.16
2017-07-19T04:18:39.274Z,82.44
2017-07-19T04:21:11.678Z,81.97
2017-07-19T04:23:43.899Z,80.62
2017-07-19T04:26:16.375Z,79.18
2017-07-19T04:28:48.862Z,75.79
2017-07-19T04:31:21.513Z,73.11
2017-07-19T04:33:53.846Z,71.04
2017-07-19T04:36:26.245Z,69.82
2017-07-19T04:38:58.665Z,68.23
2017-07-19T04:41:31.041Z,67.13
2017-07-19T04:44:03.493Z,66.69
2017-07-19T04:46:35.950Z,65.49
2017-07-19T04:49:08.549Z,65.20
2017-07-19T04:51:41.165Z,64.26
2017-07-19T04:54:13.713Z,62.09
2017-07-19T04:56:46.182Z,63.12
2017-07-19T04:59:18.690Z,63.33
2017-07-19T05:01:51.165Z,62.52
2017-07-19T05:04:23.562Z,61.83
2017-07-19T05:06:55.949Z,61.18
2017-07-19T05:09:28.441Z,60.45
2017-07-19T05:12:00.778Z,59.76
2017-07-19T05:14:33.220Z,59.62
2017-07-19T05:17:05.794Z,58.41
2017-07-19T05:19:38.374Z,57.49
2017-07-19T05:22:10.790Z,56.80
2017-07-19T05:24:43.114Z,55.54
2017-07-19T05:27:15.717Z,54.60
2017-07-19T05:29:48.176Z,55.13
2017-07-19T05:32:20.757Z,54.46
2017-07-19T05:34:53.435Z,53.05
2017-07-19T05:37:25.831Z,52.79
2017-07-19T05:39:58.173Z,52.38
2017-07-19T05:42:30.612Z,52.35
2017-07-19T05:45:03.013Z,52.11
2017-07-19T05:47:35.578Z,51.28
2017-07-19T05:50:08.160Z,52.41
2017-07-19T05:52:40.382Z,51.61
2017-07-19T05:55:12.722Z,51.26
2017-07-19T05:57:45.212Z,50.73
2017-07-19T06:00:17.589Z,49.16
2017-07-19T06:02:50.296Z,47.16
2017-07-19T06:05:22.523Z,48.35
2017-07-19T06:07:54.902Z,48.22
2017-07-19T06:10:27.286Z,47.39
2017-07-19T06:12:59.866Z,47.57
2017-07-19T06:15:32.076Z,46.79
2017-07-19T06:18:04.609Z,45.74
2017-07-19T06:20:36.861Z,46.26
2017-07-19T06:23:09.122Z,46.90
2017-07-19T06:25:41.493Z,48.11
2017-07-19T06:28:13.757Z,47.94
2017-07-19T06:30:46.242Z,46.58
2017-07-19T06:33:18.665Z,46.77
2017-07-19T06:35:51.038Z,47.39
2017-07-19T06:38:23.378Z,46.85
2017-07-19T06:40:55.861Z,47.08
2017-07-19T06:43:28.154Z,45.27
2017-07-19T06:46:00.512Z,43.35
2017-07-19T06:48:33.018Z,42.72
2017-07-19T06:51:05.239Z,42.12
2017-07-19T06:53:37.629Z,41.66
2017-07-19T06:56:10.114Z,41.82
2017-07-19T06:58:42.611Z,41.12
2017-07-19T07:01:14.953Z,40.74
2017-07-19T07:03:47.569Z,40.22
2017-07-19T07:06:20.017Z,40.98
2017-07-19T07:08:52.550Z,40.67
2017-07-19T07:11:24.862Z,40.60
2017-07-19T07:13:57.350Z,40.42
2017-07-19T07:16:29.615Z,38.53
2017-07-19T07:19:02.085Z,38.74
2017-07-19T07:21:34.479Z,38.79
2017-07-19T07:24:06.945Z,38.94
2017-07-19T07:26:39.328Z,38.54
2017-07-19T07:29:11.647Z,38.44
2017-07-19T07:31:43.980Z,39.85
2017-07-19T07:34:16.560Z,41.38
2017-07-19T07:36:48.868Z,42.73
2017-07-19T07:39:21.181Z,44.22
2017-07-19T07:41:53.411Z,44.16
2017-07-19T07:44:25.809Z,44.95
2017-07-19T07:46:58.257Z,44.49
2017-07-19T07:49:30.786Z,42.64
2017-07-19T07:52:03.323Z,40.99
2017-07-19T07:54:35.710Z,40.66
2017-07-19T07:57:08.129Z,40.76
2017-07-19T07:59:40.559Z,39.90
2017-07-19T08:02:12.810Z,39.64
2017-07-19T08:04:45.146Z,40.96
2017-07-19T08:07:17.457Z,41.09
2017-07-19T08:09:49.905Z,41.05
2017-07-19T08:12:22.324Z,42.55
2017-07-19T08:14:54.729Z,42.83
2017-07-19T08:17:27.081Z,41.68
2017-07-19T08:19:59.669Z,41.36
2017-07-19T08:22:31.975Z,39.89
2017-07-19T08:25:04.263Z,38.89
2017-07-19T08:27:36.656Z,39.33
2017-07-19T08:30:09.079Z,40.07
2017-07-19T08:32:41.326Z,39.97
2017-07-19T08:35:13.881Z,39.05
2017-07-19T08:37:46.018Z,38.42
2017-07-19T08:40:18.337Z,38.98
2017-07-19T08:42:50.636Z,38.20
2017-07-19T08:45:23.192Z,37.73
2017-07-19T08:47:55.399Z,38.34
2017-07-19T08:50:27.637Z,38.28
2017-07-19T08:52:59.893Z,38.25
2017-07-19T08:55:32.285Z,38.40
2017-07-19T08:58:04.736Z,37.12
2017-07-19T09:00:37.013Z,36.49
2017-07-19T09:03:09.282Z,36.22
2017-07-19T09:05:41.587Z,36.52
2017-07-19T09:08:13.994Z,36.58
2017-07-19T09:10:46.342Z,36.39
2017-07-19T09:13:18.497Z,37.28
2017-07-19T09:15:50.759Z,36.80
2017-07-19T09:18:22.993Z,35.90
2017-07-19T09:20:55.381Z,36.41
2017-07-19T09:23:27.645Z,36.27
2017-07-19T09:26:00.028Z,35.41
2017-07-19T09:28:32.422Z,35.50
2017-07-19T09:31:05.502Z,35.44
2017-07-19T09:33:38.790Z,35.76
2017-07-19T09:36:11.496Z,36.42
2017-07-19T09:38:43.832Z,37.27
2017-07-19T09:41:16.314Z,36.29
2017-07-19T09:43:48.638Z,37.66
2017-07-19T09:46:21.006Z,37.43
2017-07-19T09:48:53.441Z,37.62
2017-07-19T09:51:25.844Z,38.21
2017-07-19T09:53:58.125Z,38.43
2017-07-19T09:56:30.412Z,38.30
2017-07-19T09:59:02.822Z,37.51
2017-07-19T10:01:35.221Z,37.55
2017-07-19T10:04:07.485Z,38.12
2017-07-19T10:06:39.989Z,36.21
2017-07-19T10:09:12.314Z,35.90
2017-07-19T10:11:44.846Z,35.92
2017-07-19T10:14:17.148Z,36.21
2017-07-19T10:16:49.453Z,35.71
2017-07-19T10:19:21.733Z,36.35
2017-07-19T10:21:54.227Z,36.23
2017-07-19T10:24:26.454Z,36.86
2017-07-19T10:26:58.796Z,36.75
2017-07-19T10:29:31.063Z,36.34
2017-07-19T10:32:03.725Z,37.19
2017-07-19T10:34:35.638Z,36.92
2017-07-19T10:37:08.399Z,37.39
2017-07-19T10:39:40.501Z,38.04
2017-07-19T10:42:13.001Z,39.44
2017-07-19T10:44:45.454Z,39.12
2017-07-19T10:47:17.978Z,37.61
2017-07-19T10:49:50.155Z,38.68
2017-07-19T10:52:22.405Z,38.21
2017-07-19T10:54:55.557Z,37.64
2017-07-19T10:57:28.157Z,37.53
2017-07-19T11:00:00.466Z,37.12
2017-07-19T11:02:32.854Z,36.84
2017-07-19T11:05:05.023Z,36.86
2017-07-19T11:07:37.274Z,37.55
2017-07-19T11:10:09.416Z,37.58
2017-07-19T11:12:41.691Z,37.77
2017-07-19T11:15:14.129Z,35.47
2017-07-19T11:17:46.513Z,36.68
2017-07-19T11:20:18.765Z,36.16
2017-07-19T11:22:51.053Z,36.37
2017-07-19T11:25:23.282Z,36.91
2017-07-19T11:27:55.702Z,37.09
2017-07-19T11:30:27.957Z,36.77
2017-07-19T11:33:00.302Z,36.55
2017-07-19T11:35:32.574Z,36.88
2017-07-19T11:38:05.002Z,37.41
2017-07-19T11:40:37.432Z,37.91
2017-07-19T11:43:09.674Z,37.46
2017-07-19T11:45:42.012Z,38.52
2017-07-19T11:48:14.238Z,37.55
2017-07-19T11:50:46.476Z,37.67
2017-07-19T11:53:18.832Z,36.65
2017-07-19T11:55:51.188Z,37.38
2017-07-19T11:58:23.441Z,37.51
2017-07-19T12:00:55.835Z,36.84
2017-07-19T12:03:28.237Z,37.82
2017-07-19T12:06:00.558Z,37.44
2017-07-19T12:08:32.881Z,37.03
2017-07-19T12:11:05.313Z,36.82
2017-07-19T12:13:37.750Z,35.88
2017-07-19T12:16:09.865Z,34.68
2017-07-19T12:18:42.185Z,33.67
2017-07-19T12:21:14.517Z,35.07
2017-07-19T12:23:46.829Z,34.02
2017-07-19T12:26:19.373Z,33.14
2017-07-19T12:28:51.917Z,32.69
2017-07-19T12:31:24.473Z,33.23
2017-07-19T12:33:56.568Z,32.76
2017-07-19T12:36:28.825Z,33.50
2017-07-19T12:39:01.251Z,33.86
2017-07-19T12:41:33.690Z,34.03
2017-07-19T12:44:06.144Z,33.04
2017-07-19T12:46:38.342Z,33.07
2017-07-19T12:49:10.642Z,33.58
2017-07-19T12:51:43.019Z,34.04
2017-07-19T12:54:15.404Z,34.22
2017-07-19T12:56:47.653Z,32.75
2017-07-19T12:59:19.935Z,33.71
2017-07-19T13:01:52.294Z,33.67
2017-07-19T13:04:24.544Z,33.87
2017-07-19T13:06:56.850Z,34.29
2017-07-19T13:09:29.211Z,33.37
2017-07-19T13:12:01.577Z,33.35
2017-07-19T13:14:33.998Z,33.38
2017-07-19T13:17:06.271Z,33.92
2017-07-19T13:19:38.841Z,33.80
2017-07-19T13:22:11.079Z,33.76
2017-07-19T13:24:43.414Z,34.27
2017-07-19T13:27:15.725Z,34.11
2017-07-19T13:29:48.137Z,33.08
2017-07-19T13:32:20.615Z,34.09
2017-07-19T13:34:53.153Z,34.53
2017-07-19T13:37:25.527Z,34.75
2017-07-19T13:39:58.014Z,35.43
2017-07-19T13:42:30.458Z,36.05
2017-07-19T13:45:02.939Z,34.53
2017-07-19T13:47:35.298Z,33.79
2017-07-19T13:50:07.653Z,33.99
2017-07-19T13:52:39.950Z,33.75
2017-07-19T13:55:12.322Z,34.08
2017-07-19T13:57:44.726Z,33.75
2017-07-19T14:00:17.167Z,33.87
2017-07-19T14:02:49.493Z,34.09
2017-07-19T14:05:21.767Z,34.24
2017-07-19T14:07:54.198Z,34.76
2017-07-19T14:10:26.507Z,34.80
2017-07-19T14:12:58.840Z,36.07
2017-07-19T14:15:31.461Z,35.65
2017-07-19T14:18:03.519Z,35.58
2017-07-19T14:20:35.970Z,36.38
2017-07-19T14:23:08.294Z,36.41
2017-07-19T14:25:40.825Z,35.69
2017-07-19T14:28:13.316Z,35.80
2017-07-19T14:30:46.069Z,37.75
2017-07-19T14:33:18.829Z,37.69
2017-07-19T14:35:51.065Z,37.84
2017-07-19T14:38:24.678Z,37.15
2017-07-19T14:40:56.586Z,36.38
2017-07-19T14:43:28.869Z,37.35
2017-07-19T14:46:01.329Z,37.25
2017-07-19T14:48:33.497Z,36.71
2017-07-19T14:51:05.841Z,36.63
2017-07-19T14:53:38.141Z,36.11
2017-07-19T14:56:10.555Z,37.00
2017-07-19T14:58:42.798Z,37.55
2017-07-19T15:01:15.176Z,37.23
2017-07-19T15:03:47.529Z,37.33
2017-07-19T15:06:19.993Z,37.44
2017-07-19T15:08:52.249Z,37.76
2017-07-19T15:11:24.689Z,38.22
2017-07-19T15:13:56.961Z,38.26
2017-07-19T15:16:29.412Z,38.39
2017-07-19T15:19:01.667Z,38.95
2017-07-19T15:21:34.062Z,39.27
2017-07-19T15:24:06.334Z,39.28
2017-07-19T15:26:38.717Z,39.79
2017-07-19T15:29:11.072Z,39.56
2017-07-19T15:31:43.438Z,38.85
2017-07-19T15:34:15.900Z,37.15
2017-07-19T15:36:47.973Z,36.58
2017-07-19T15:39:20.254Z,36.79
2017-07-19T15:41:52.618Z,37.88
2017-07-19T15:44:24.935Z,37.38
2017-07-19T15:46:57.153Z,38.21
2017-07-19T15:49:29.459Z,38.78
2017-07-19T15:52:01.871Z,38.76
2017-07-19T15:54:34.153Z,38.38
2017-07-19T15:57:06.486Z,39.03
2017-07-19T15:59:38.933Z,38.70
2017-07-19T16:02:11.181Z,39.47
2017-07-19T16:04:43.389Z,39.85
2017-07-19T16:07:15.845Z,40.17
2017-07-19T16:09:48.343Z,40.35
2017-07-19T16:12:20.850Z,39.89
2017-07-19T16:14:52.876Z,40.76
2017-07-19T16:17:25.196Z,41.08
2017-07-19T16:19:57.452Z,41.79
2017-07-19T16:22:29.777Z,42.57
2017-07-19T16:25:02.013Z,42.49
2017-07-19T16:27:34.285Z,42.94
2017-07-19T16:30:06.481Z,43.06
2017-07-19T16:32:38.932Z,43.28
2017-07-19T16:35:11.311Z,43.76
2017-07-19T16:37:43.555Z,43.84
2017-07-19T16:40:15.987Z,44.26
2017-07-19T16:42:48.535Z,44.60
2017-07-19T16:45:20.902Z,45.13
2017-07-19T16:47:53.147Z,45.54
2017-07-19T16:50:25.556Z,44.44
2017-07-19T16:52:57.978Z,45.53
2017-07-19T16:55:30.448Z,48.58
2017-07-19T16:58:03.117Z,50.10
2017-07-19T17:00:35.378Z,52.87
2017-07-19T17:03:07.812Z,55.30
2017-07-19T17:05:40.316Z,57.67
2017-07-19T17:08:12.805Z,60.03
2017-07-19T17:10:45.046Z,65.85
2017-07-19T17:13:17.454Z,68.65
2017-07-19T17:15:49.708Z,71.75
2017-07-19T17:18:22.067Z,74.92
2017-07-19T17:20:54.414Z,76.75
2017-07-19T17:23:26.904Z,78.39
2017-07-19T17:25:59.145Z,80.25
2017-07-19T17:28:31.530Z,81.38
2017-07-19T17:31:03.754Z,81.81
2017-07-19T17:33:36.168Z,82.17
2017-07-19T17:36:08.618Z,80.69
2017-07-19T17:38:40.854Z,81.05
2017-07-19T17:41:13.101Z,80.05
2017-07-19T17:43:45.471Z,80.07
2017-07-19T17:46:17.677Z,80.61
2017-07-19T17:48:49.947Z,78.99
2017-07-19T17:51:22.445Z,79.07
2017-07-19T17:53:54.753Z,79.19
2017-07-19T17:56:27.007Z,79.14
2017-07-19T17:58:59.442Z,79.38
2017-07-19T18:01:31.632Z,78.45
2017-07-19T18:04:03.927Z,80.01
2017-07-19T18:06:36.261Z,79.87
2017-07-19T18:09:08.671Z,81.02
2017-07-19T18:11:40.942Z,80.98
2017-07-19T18:14:13.275Z,81.38
2017-07-19T18:16:45.550Z,81.89
2017-07-19T18:19:17.901Z,82.00
2017-07-19T18:21:50.130Z,82.07
2017-07-19T18:24:22.703Z,82.63
2017-07-19T18:26:55.074Z,82.41
2017-07-19T18:29:27.453Z,82.50
2017-07-19T18:31:59.839Z,82.94
2017-07-19T18:34:32.161Z,82.76
2017-07-19T18:37:04.359Z,82.47
2017-07-19T18:39:36.680Z,83.21
2017-07-19T18:42:09.006Z,82.94
2017-07-19T18:44:41.524Z,82.15
2017-07-19T18:47:13.972Z,82.17
2017-07-19T18:49:46.479Z,82.53
2017-07-19T18:52:18.781Z,82.18
2017-07-19T18:54:51.152Z,82.80
2017-07-19T18:57:23.533Z,83.11
2017-07-19T18:59:55.875Z,83.39
2017-07-19T19:02:28.757Z,83.23
2017-07-19T19:05:00.744Z,84.06
2017-07-19T19:07:33.013Z,83.98
2017-07-19T19:10:05.321Z,84.55
2017-07-19T19:12:37.761Z,85.41
2017-07-19T19:15:10.344Z,86.38
2017-07-19T19:17:43.221Z,86.95
2017-07-19T19:20:15.152Z,87.78
2017-07-19T19:22:47.395Z,87.36
2017-07-19T19:25:19.734Z,87.27
2017-07-19T19:27:52.164Z,87.07
2017-07-19T19:30:24.362Z,87.38
2017-07-19T19:32:56.730Z,88.08
2017-07-19T19:35:29.108Z,88.35
2017-07-19T19:38:01.510Z,88.09
2017-07-19T19:40:33.670Z,88.16
2017-07-19T19:43:05.968Z,88.34
2017-07-19T19:45:38.234Z,88.20
2017-07-19T19:48:10.485Z,88.49
2017-07-19T19:50:42.773Z,88.95
2017-07-19T19:53:15.057Z,89.48
2017-07-19T19:55:47.477Z,89.63
2017-07-19T19:58:19.733Z,89.90
2017-07-19T20:00:52.209Z,90.12
2017-07-19T20:03:24.607Z,90.21
2017-07-19T20:05:57.202Z,90.17
2017-07-19T20:08:29.682Z,90.31
2017-07-19T20:11:02.280Z,90.42
2017-07-19T20:13:34.835Z,90.29
2017-07-19T20:16:07.331Z,90.18
2017-07-19T20:18:39.677Z,89.98
2017-07-19T20:21:12.013Z,89.86
2017-07-19T20:23:44.229Z,89.72
2017-07-19T20:26:16.551Z,89.81
2017-07-19T20:28:48.812Z,89.94
2017-07-19T20:31:21.261Z,89.61
2017-07-19T20:33:53.537Z,89.30
2017-07-19T20:36:26.039Z,89.55
2017-07-19T20:38:58.378Z,89.75
2017-07-19T20:41:30.983Z,89.66
2017-07-19T20:44:03.285Z,89.84
2017-07-19T20:46:35.514Z,90.10
2017-07-19T20:49:07.966Z,90.24
2017-07-19T20:51:40.342Z,90.14
2017-07-19T20:54:12.738Z,90.06
2017-07-19T20:56:44.942Z,89.86
2017-07-19T20:59:17.153Z,89.94
2017-07-19T21:01:49.554Z,90.01
2017-07-19T21:04:22.088Z,89.90
2017-07-19T21:06:54.646Z,89.78
2017-07-19T21:09:27.053Z,89.55
2017-07-19T21:11:59.163Z,89.54
2017-07-19T21:14:31.306Z,89.26
2017-07-19T21:17:03.707Z,89.37
2017-07-19T21:19:36.131Z,89.48
2017-07-19T21:22:08.577Z,89.93
2017-07-19T21:24:40.861Z,90.27
2017-07-19T21:27:13.248Z,90.15
2017-07-19T21:29:45.546Z,90.31
2017-07-19T21:32:18.122Z,90.64
2017-07-19T21:34:50.649Z,90.97
2017-07-19T21:37:23.241Z,90.93
2017-07-19T21:39:55.521Z,90.96
2017-07-19T21:42:27.850Z,91.17
2017-07-19T21:45:00.174Z,91.59
2017-07-19T21:47:32.477Z,91.56
2017-07-19T21:50:04.821Z,91.37
2017-07-19T21:52:37.265Z,91.10
2017-07-19T21:55:09.611Z,91.06
2017-07-19T21:57:41.900Z,91.53
2017-07-19T22:00:14.189Z,91.84
2017-07-19T22:02:46.709Z,91.75
2017-07-19T22:05:18.965Z,91.37
2017-07-19T22:07:51.344Z,90.99
2017-07-19T22:10:23.685Z,91.15
2017-07-19T22:12:56.101Z,91.21
2017-07-19T22:15:28.597Z,91.08
2017-07-19T22:18:00.653Z,90.91
2017-07-19T22:20:32.842Z,91.14
2017-07-19T22:23:05.230Z,91.14
2017-07-19T22:25:37.642Z,90.93
2017-07-19T22:28:10.135Z,90.69
2017-07-19T22:30:42.521Z,90.65
2017-07-19T22:33:15.020Z,90.77
2017-07-19T22:35:48.076Z,90.68
2017-07-19T22:38:20.940Z,90.91
2017-07-19T22:40:53.230Z,91.04
2017-07-19T22:43:25.611Z,91.19
2017-07-19T22:45:57.855Z,91.20
2017-07-19T22:48:30.279Z,91.61
2017-07-19T22:51:02.537Z,91.41
2017-07-19T22:53:34.879Z,91.35
2017-07-19T22:56:07.222Z,91.30
2017-07-19T22:58:39.630Z,91.25
2017-07-19T23:01:11.951Z,91.28
2017-07-19T23:03:44.290Z,91.02
2017-07-19T23:06:16.742Z,90.93
2017-07-19T23:08:48.928Z,90.85
2017-07-19T23:11:21.289Z,90.83
2017-07-19T23:13:53.667Z,91.13
2017-07-19T23:16:25.795Z,91.56
2017-07-19T23:18:58.114Z,91.85
2017-07-19T23:21:30.386Z,92.09
2017-07-19T23:24:02.734Z,92.60
2017-07-19T23:26:34.974Z,92.75
2017-07-19T23:29:07.286Z,92.77
2017-07-19T23:31:39.521Z,92.84
2017-07-19T23:34:11.792Z,92.89
2017-07-19T23:36:44.209Z,93.10
2017-07-19T23:39:16.691Z,92.92
2017-07-19T23:41:49.230Z,92.71
2017-07-19T23:44:21.462Z,93.08
2017-07-19T23:46:53.853Z,93.47
2017-07-19T23:49:26.077Z,93.46
2017-07-19T23:51:58.562Z,93.80
2017-07-19T23:54:31.001Z,94.28
2017-07-19T23:57:03.242Z,94.75
2017-07-19T23:59:35.631Z,95.04
